Time;durP1;ratioP1;P1;durP2;ratioP2;P2;SDS_P1;SDS_P2;PMS_P1;PMS_P2;Temp;Humidity;BMP_temperature;BMP_pressure;BME280_temperature;BME280_humidity;BME280_pressure;Samples;Min_cycle;Max_cycle;Signal;HPM_P1;HPM_P2
2022/06/12 00:01:50;;;;;;;2.72;2.30;;;18.60;99.40;;;;;;5028041;28;20115;-45
2022/06/12 00:04:16;;;;;;;5.38;2.97;;;18.60;99.70;;;;;;5028331;28;20022;-45
2022/06/12 00:06:42;;;;;;;3.28;2.55;;;18.60;99.70;;;;;;5027160;28;20036;-46
2022/06/12 00:09:08;;;;;;;3.13;2.72;;;18.50;99.90;;;;;;5028545;28;20124;-45
2022/06/12 00:11:34;;;;;;;4.13;2.50;;;18.50;99.90;;;;;;5027989;28;20072;-46
2022/06/12 00:14:02;;;;;;;5.28;2.58;;;18.50;99.90;;;;;;5028333;28;20052;-48
2022/06/12 00:16:30;;;;;;;6.90;2.35;;;18.50;99.90;;;;;;5028590;28;20398;-47
2022/06/12 00:18:56;;;;;;;2.85;2.47;;;18.40;99.90;;;;;;5028332;28;20552;-48
2022/06/12 00:21:22;;;;;;;3.92;3.17;;;18.40;99.90;;;;;;5027724;28;20037;-48
2022/06/12 00:23:52;;;;;;;5.07;2.58;;;18.40;99.90;;;;;;5028496;28;20522;-48
2022/06/12 00:26:31;;;;;;;3.28;2.83;;;18.40;99.90;;;;;;5028255;28;20129;-49
2022/06/12 00:29:12;;;;;;;2.97;2.17;;;18.30;99.90;;;;;;5027098;28;20048;-47
2022/06/12 00:31:42;;;;;;;3.90;2.78;;;18.30;99.90;;;;;;5028042;28;20032;-49
2022/06/12 00:34:09;;;;;;;2.90;2.47;;;18.30;99.90;;;;;;5028715;28;20034;-50
2022/06/12 00:36:35;;;;;;;3.78;2.60;;;18.20;99.90;;;;;;5028756;28;20076;-50
2022/06/12 00:39:00;;;;;;;3.90;2.63;;;18.20;99.90;;;;;;5028442;28;20570;-47
2022/06/12 00:41:26;;;;;;;4.05;3.05;;;18.20;99.90;;;;;;5027924;28;20112;-48
2022/06/12 00:43:52;;;;;;;4.57;2.95;;;18.20;99.90;;;;;;5028274;28;20026;-45
2022/06/12 00:46:36;;;;;;;2.58;2.35;;;18.20;99.90;;;;;;5031262;28;20109;-48
2022/06/12 00:49:11;;;;;;;6.60;3.10;;;18.20;99.90;;;;;;5031870;28;20035;-46
2022/06/12 00:51:38;;;;;;;3.25;2.42;;;18.20;99.90;;;;;;5031477;28;20286;-48
2022/06/12 00:54:06;;;;;;;3.63;2.83;;;18.20;99.90;;;;;;5030577;28;20041;-45
2022/06/12 00:56:35;;;;;;;3.47;2.70;;;18.20;99.90;;;;;;5030270;28;20022;-46
2022/06/12 00:59:14;;;;;;;6.10;3.00;;;18.20;99.90;;;;;;5032034;28;20422;-46
2022/06/12 01:01:47;;;;;;;5.93;3.08;;;18.20;99.90;;;;;;5031414;28;20033;-47
2022/06/12 01:07:03;;;;;;;5.97;3.10;;;18.20;99.90;;;;;;5031927;28;20052;-49
2022/06/12 01:09:32;;;;;;;;;;;18.20;99.90;;;;;;5031662;28;20116;-46
2022/06/12 01:12:00;;;;;;;4.55;2.90;;;18.10;99.90;;;;;;5031535;28;19951;-49
2022/06/12 01:14:32;;;;;;;4.32;2.97;;;18.10;99.90;;;;;;5031378;28;20021;-47
2022/06/12 01:16:59;;;;;;;4.13;3.10;;;18.10;99.90;;;;;;5031412;28;20021;-48
2022/06/12 01:19:30;;;;;;;4.97;2.80;;;18.10;99.90;;;;;;5030902;28;20120;-49
2022/06/12 01:22:12;;;;;;;4.32;2.75;;;18.10;99.90;;;;;;5031305;28;20530;-48
2022/06/12 01:24:42;;;;;;;6.40;2.88;;;18.00;99.90;;;;;;5014815;28;20103;-50
2022/06/12 01:27:41;;;;;;;5.22;3.70;;;18.10;99.90;;;;;;5031172;28;20104;-50
2022/06/12 01:30:18;;;;;;;4.32;2.90;;;18.00;99.90;;;;;;5030745;28;20180;-49
2022/06/12 01:32:43;;;;;;;5.28;3.50;;;18.00;99.90;;;;;;5031239;28;20115;-49
2022/06/12 01:35:34;;;;;;;6.05;3.03;;;18.00;99.90;;;;;;5031149;28;20060;-49
2022/06/12 01:38:16;;;;;;;4.75;2.63;;;17.90;99.90;;;;;;5031184;28;20026;-49
2022/06/12 01:40:57;;;;;;;3.95;3.17;;;17.90;99.90;;;;;;5030179;28;20029;-47
2022/06/12 01:43:32;;;;;;;3.50;2.72;;;17.90;99.90;;;;;;5030988;28;20083;-47
2022/06/12 01:46:38;;;;;;;5.45;2.83;;;17.90;99.90;;;;;;5030865;28;20137;-45
2022/06/12 01:49:16;;;;;;;3.70;2.50;;;17.90;99.90;;;;;;4997259;28;20104;-46
2022/06/12 01:52:09;;;;;;;4.72;2.75;;;17.80;99.90;;;;;;5030215;28;20029;-46
2022/06/12 01:54:42;;;;;;;7.03;3.17;;;17.80;99.90;;;;;;5030757;28;20411;-47
2022/06/12 01:57:16;;;;;;;4.35;3.30;;;17.80;99.90;;;;;;5031009;28;20021;-47
2022/06/12 01:59:55;;;;;;;6.40;3.42;;;17.70;99.90;;;;;;5030216;28;20022;-46
2022/06/12 02:02:43;;;;;;;9.75;3.85;;;17.70;99.90;;;;;;5031037;28;20030;-46
2022/06/12 02:05:30;;;;;;;13.27;4.80;;;17.70;99.90;;;;;;5030900;28;20390;-47
2022/06/12 02:08:17;;;;;;;14.65;5.03;;;17.70;99.90;;;;;;5030662;28;20034;-47
2022/06/12 02:10:46;;;;;;;11.60;4.85;;;17.70;99.90;;;;;;5029907;28;20029;-46
2022/06/12 02:13:34;;;;;;;10.68;4.47;;;17.70;99.90;;;;;;5030876;28;20029;-46
2022/06/12 02:16:08;;;;;;;11.05;5.13;;;17.70;99.90;;;;;;5030584;28;20036;-46
2022/06/12 02:18:50;;;;;;;7.72;4.03;;;17.70;99.90;;;;;;5030414;28;20025;-46
2022/06/12 02:21:30;;;;;;;12.75;4.70;;;17.60;99.90;;;;;;5029657;28;20120;-47
2022/06/12 02:24:04;;;;;;;13.27;4.72;;;17.60;99.90;;;;;;5030060;28;20091;-47
2022/06/12 02:26:36;;;;;;;9.50;4.53;;;17.60;99.90;;;;;;5030268;28;20368;-48
2022/06/12 02:29:06;;;;;;;10.65;4.90;;;17.50;99.90;;;;;;5030049;28;20026;-46
2022/06/12 02:31:36;;;;;;;9.05;4.38;;;17.40;99.90;;;;;;5029741;28;20176;-46
2022/06/12 02:34:12;;;;;;;15.95;5.70;;;17.40;99.90;;;;;;5030539;28;20017;-47
2022/06/12 02:36:43;;;;;;;13.68;5.38;;;17.30;99.90;;;;;;5029969;28;20033;-47
2022/06/12 02:39:20;;;;;;;11.38;4.72;;;17.30;99.90;;;;;;5030013;28;20032;-47
2022/06/12 02:41:53;;;;;;;16.05;5.18;;;17.20;99.90;;;;;;5029318;28;20383;-47
2022/06/12 02:44:42;;;;;;;12.27;4.57;;;17.20;99.90;;;;;;5029777;28;20017;-47
2022/06/12 02:47:15;;;;;;;12.18;4.55;;;17.20;99.90;;;;;;5029945;28;20164;-46
2022/06/12 02:49:44;;;;;;;11.52;4.55;;;17.10;99.90;;;;;;5027993;28;20236;-47
2022/06/12 02:52:45;;;;;;;7.82;3.72;;;17.10;99.90;;;;;;5028472;28;20025;-48
2022/06/12 02:55:35;;;;;;;12.65;4.82;;;17.00;99.90;;;;;;5028515;28;20288;-47
2022/06/12 02:58:21;;;;;;;12.23;4.45;;;17.10;99.90;;;;;;5029587;28;20060;-50
2022/06/12 03:00:55;;;;;;;11.85;4.28;;;17.10;99.90;;;;;;5029358;28;20112;-47
2022/06/12 03:03:34;;;;;;;9.80;4.47;;;17.10;99.90;;;;;;5029380;28;20124;-47
2022/06/12 03:06:00;;;;;;;11.52;4.63;;;17.10;99.90;;;;;;5028268;28;20022;-48
2022/06/12 03:08:35;;;;;;;9.35;4.20;;;17.10;99.90;;;;;;5029164;28;20040;-49
2022/06/12 03:11:20;;;;;;;11.48;3.97;;;17.10;99.90;;;;;;5028889;28;20059;-49
2022/06/12 03:13:48;;;;;;;9.95;4.30;;;17.10;99.90;;;;;;5029219;28;20022;-50
2022/06/12 03:16:32;;;;;;;8.25;3.90;;;17.10;99.90;;;;;;5028922;28;20087;-47
2022/06/12 03:19:08;;;;;;;15.60;4.90;;;17.10;99.90;;;;;;5029160;28;20064;-50
2022/06/12 03:21:41;;;;;;;8.63;3.97;;;17.10;99.90;;;;;;5028477;28;20027;-48
2022/06/12 03:24:36;;;;;;;6.68;3.72;;;17.10;99.90;;;;;;5029208;28;20024;-50
2022/06/12 03:27:10;;;;;;;10.68;3.95;;;17.10;99.90;;;;;;5027238;28;20033;-47
2022/06/12 03:29:50;;;;;;;12.27;4.38;;;17.10;99.90;;;;;;5027064;28;20071;-48
2022/06/12 03:32:25;;;;;;;13.65;4.43;;;17.00;99.90;;;;;;5028979;28;20022;-47
2022/06/12 03:34:55;;;;;;;13.20;4.82;;;17.10;99.90;;;;;;5028831;28;20025;-48
2022/06/12 03:37:43;;;;;;;10.05;4.60;;;17.10;99.90;;;;;;5029021;28;20045;-48
2022/06/12 03:40:15;;;;;;;14.80;4.32;;;17.10;99.90;;;;;;5028610;28;20191;-47
2022/06/12 03:42:56;;;;;;;14.13;4.60;;;17.10;99.90;;;;;;5028907;28;20032;-50
2022/06/12 03:45:38;;;;;;;12.93;4.78;;;17.10;99.90;;;;;;5028819;28;20100;-49
2022/06/12 03:48:32;;;;;;;12.45;4.57;;;17.00;99.90;;;;;;5029006;28;20480;-50
2022/06/12 03:51:33;;;;;;;11.10;5.40;;;17.00;99.90;;;;;;5027564;28;20037;-48
2022/06/12 03:54:39;;;;;;;12.95;5.43;;;16.90;99.90;;;;;;5028775;28;20025;-46
2022/06/12 04:00:17;;;;;;;12.32;4.70;;;16.80;99.90;;;;;;5028297;28;20041;-46
2022/06/12 04:02:50;;;;;;;14.35;5.88;;;16.80;99.90;;;;;;5028567;28;20057;-50
2022/06/12 04:05:22;;;;;;;10.52;5.57;;;16.70;99.90;;;;;;5028662;28;20021;-50
2022/06/12 04:07:51;;;;;;;8.48;3.88;;;16.70;99.90;;;;;;5029022;28;20029;-51
2022/06/12 04:10:21;;;;;;;16.02;5.35;;;16.60;99.90;;;;;;5027839;28;20029;-47
2022/06/12 04:12:47;;;;;;;15.00;5.05;;;16.60;99.90;;;;;;5028763;28;20022;-47
2022/06/12 04:15:28;;;;;;;11.38;4.55;;;16.50;99.90;;;;;;5028547;28;20067;-48
2022/06/12 04:17:55;;;;;;;;;;;16.50;99.90;;;;;;5029741;28;20497;-49
2022/06/12 04:20:31;;;;;;;7.45;4.13;;;16.40;99.90;;;;;;5029778;28;20396;-48
2022/06/12 04:23:02;;;;;;;16.65;5.60;;;16.40;99.90;;;;;;5032812;28;20030;-47
2022/06/12 04:25:50;;;;;;;10.50;5.15;;;16.30;99.90;;;;;;5032486;28;20032;-47
2022/06/12 04:28:43;;;;;;;10.43;4.72;;;16.30;99.90;;;;;;5032577;28;20134;-47
2022/06/12 04:31:16;;;;;;;13.23;5.32;;;16.40;99.90;;;;;;5028747;28;20034;-48
2022/06/12 04:33:50;;;;;;;11.32;5.35;;;16.30;99.90;;;;;;5032556;28;20026;-47
2022/06/12 04:36:16;;;;;;;14.27;4.78;;;16.30;99.90;;;;;;5032042;28;20387;-49
2022/06/12 04:38:41;;;;;;;14.73;5.32;;;16.30;99.90;;;;;;5032018;28;20026;-46
2022/06/12 04:41:07;;;;;;;11.70;4.65;;;16.30;99.90;;;;;;5031488;28;20463;-47
2022/06/12 04:43:33;;;;;;;16.85;5.72;;;16.30;99.90;;;;;;5031978;28;20029;-46
2022/06/12 04:45:59;;;;;;;8.50;4.78;;;16.30;99.90;;;;;;5032503;28;20026;-47
2022/06/12 04:48:31;;;;;;;14.15;5.32;;;16.30;99.90;;;;;;5031815;28;20025;-46
2022/06/12 04:50:57;;;;;;;11.15;4.50;;;16.30;99.90;;;;;;5031200;28;20034;-45
2022/06/12 04:53:22;;;;;;;8.40;4.40;;;16.30;99.90;;;;;;5031560;28;20034;-47
2022/06/12 04:55:48;;;;;;;11.20;4.65;;;16.30;99.90;;;;;;5031883;28;20196;-47
2022/06/12 04:58:13;;;;;;;13.68;4.82;;;16.30;99.90;;;;;;5030396;28;20478;-47
2022/06/12 05:00:39;;;;;;;16.92;4.95;;;16.30;99.90;;;;;;5031064;28;20044;-49
2022/06/12 05:03:04;;;;;;;15.73;4.43;;;16.30;99.90;;;;;;5031789;28;20033;-46
2022/06/12 05:05:31;;;;;;;13.05;5.13;;;16.40;99.90;;;;;;5031761;28;20018;-48
2022/06/12 05:07:56;;;;;;;9.20;4.40;;;16.40;99.90;;;;;;5031811;28;20402;-48
2022/06/12 05:10:22;;;;;;;12.25;4.10;;;16.40;99.90;;;;;;5030868;28;20026;-48
2022/06/12 05:12:48;;;;;;;11.93;4.85;;;16.50;99.90;;;;;;5031795;28;20375;-49
2022/06/12 05:15:14;;;;;;;18.80;4.95;;;16.50;99.90;;;;;;5032429;28;20049;-47
2022/06/12 05:17:44;;;;;;;14.23;4.63;;;16.50;99.90;;;;;;5033122;28;20041;-49
2022/06/12 05:20:16;;;;;;;13.80;4.25;;;16.60;99.90;;;;;;5032394;28;20494;-48
2022/06/12 05:22:42;;;;;;;12.52;4.18;;;16.60;99.90;;;;;;5032996;28;20033;-46
2022/06/12 05:25:08;;;;;;;12.02;3.63;;;16.60;99.90;;;;;;5032688;28;20471;-46
2022/06/12 05:27:33;;;;;;;10.70;3.20;;;16.70;99.90;;;;;;5032585;28;20040;-48
2022/06/12 05:29:59;;;;;;;13.10;4.38;;;16.70;99.90;;;;;;5032268;28;20395;-48
2022/06/12 05:32:25;;;;;;;11.50;4.60;;;16.80;99.90;;;;;;5032423;28;20026;-50
2022/06/12 05:34:51;;;;;;;16.02;4.65;;;16.80;99.90;;;;;;5032631;28;20033;-49
2022/06/12 05:37:18;;;;;;;20.13;6.60;;;16.80;99.90;;;;;;5032675;28;20074;-49
2022/06/12 05:39:43;;;;;;;14.40;5.05;;;16.90;99.90;;;;;;5030596;28;20032;-50
2022/06/12 05:42:09;;;;;;;13.45;4.65;;;16.90;99.90;;;;;;5032929;28;20390;-47
2022/06/12 05:44:35;;;;;;;12.77;3.97;;;17.00;99.90;;;;;;5032445;28;20032;-50
2022/06/12 05:47:01;;;;;;;10.02;4.53;;;17.10;99.90;;;;;;5031871;28;20109;-47
2022/06/12 05:49:28;;;;;;;18.48;4.30;;;17.20;99.90;;;;;;5031961;28;20104;-50
2022/06/12 05:51:54;;;;;;;10.00;4.15;;;17.20;99.90;;;;;;5031948;28;20029;-49
2022/06/12 05:54:19;;;;;;;8.50;4.32;;;17.30;99.90;;;;;;5032127;28;20032;-46
2022/06/12 05:56:45;;;;;;;10.68;4.20;;;17.40;99.90;;;;;;5031299;28;20021;-46
2022/06/12 05:59:11;;;;;;;11.63;4.13;;;17.40;99.90;;;;;;5030240;28;20379;-47
2022/06/12 06:01:40;;;;;;;11.85;4.18;;;17.50;99.90;;;;;;5031311;28;20052;-46
2022/06/12 06:04:07;;;;;;;12.73;4.47;;;17.50;99.90;;;;;;5031164;28;20091;-46
2022/06/12 06:06:37;;;;;;;9.20;4.32;;;17.60;99.90;;;;;;5032267;28;20025;-47
2022/06/12 06:09:04;;;;;;;8.20;3.83;;;17.60;99.90;;;;;;5031879;28;20095;-48
2022/06/12 06:11:30;;;;;;;12.63;4.32;;;17.70;99.90;;;;;;5031641;28;20474;-47
2022/06/12 06:13:56;;;;;;;17.33;4.90;;;17.70;99.90;;;;;;5031986;28;20028;-50
2022/06/12 06:16:22;;;;;;;18.63;5.53;;;17.80;99.90;;;;;;5031481;28;20034;-46
2022/06/12 06:18:47;;;;;;;13.68;4.93;;;17.90;99.90;;;;;;5031536;28;20524;-48
2022/06/12 06:21:14;;;;;;;12.77;4.50;;;17.90;99.90;;;;;;5031233;28;20022;-49
2022/06/12 06:23:40;;;;;;;14.82;4.65;;;18.00;99.90;;;;;;5031671;28;20033;-48
2022/06/12 06:26:06;;;;;;;16.17;4.65;;;18.10;99.90;;;;;;5031724;28;20036;-51
2022/06/12 06:28:32;;;;;;;15.93;4.50;;;18.20;99.90;;;;;;5031705;28;20025;-47
2022/06/12 06:30:59;;;;;;;17.73;4.38;;;18.30;99.90;;;;;;5031085;28;20034;-48
2022/06/12 06:33:24;;;;;;;15.27;4.22;;;18.40;99.90;;;;;;5031572;28;20105;-48
2022/06/12 06:35:50;;;;;;;11.90;4.22;;;18.50;99.90;;;;;;5029243;28;20562;-47
2022/06/12 06:38:16;;;;;;;24.52;5.95;;;18.60;99.90;;;;;;5030797;28;20112;-50
2022/06/12 06:40:42;;;;;;;12.73;4.43;;;18.70;99.90;;;;;;5009660;28;20026;-46
2022/06/12 06:43:08;;;;;;;12.77;4.07;;;18.90;99.90;;;;;;5010752;28;20469;-48
2022/06/12 06:48:20;;;;;;;12.27;4.05;;;19.00;99.90;;;;;;5011908;28;20096;-48
2022/06/12 06:50:46;;;;;;;16.02;4.60;;;19.10;99.90;;;;;;5010758;28;20422;-47
2022/06/12 06:53:12;;;;;;;15.88;4.22;;;19.10;99.90;;;;;;5011408;28;20106;-50
2022/06/12 06:55:38;;;;;;;11.73;4.15;;;19.30;99.90;;;;;;5011526;28;20029;-49
2022/06/12 06:58:09;;;;;;;15.25;3.88;;;19.40;98.00;;;;;;5011422;28;20037;-47
2022/06/12 07:00:36;;;;;;;9.57;3.90;;;19.50;98.20;;;;;;5010810;28;20038;-49
2022/06/12 07:03:02;;;;;;;16.83;4.75;;;19.60;98.30;;;;;;5011238;28;20022;-49
2022/06/12 07:05:29;;;;;;;8.93;3.58;;;19.70;97.40;;;;;;5011267;28;20041;-50
2022/06/12 07:07:55;;;;;;;11.85;3.72;;;19.80;97.00;;;;;;5011213;28;20018;-49
2022/06/12 07:10:23;;;;;;;14.63;4.25;;;19.90;95.60;;;;;;5010448;28;20382;-46
2022/06/12 07:12:51;;;;;;;12.10;3.70;;;19.90;96.00;;;;;;5011149;28;20490;-48
2022/06/12 07:15:18;;;;;;;11.18;3.47;;;20.10;96.20;;;;;;5020492;28;20021;-49
2022/06/12 07:17:43;;;;;;;16.75;4.10;;;20.30;95.40;;;;;;5025046;28;20040;-46
2022/06/12 07:20:12;;;;;;;11.05;3.60;;;20.40;95.00;;;;;;5030121;28;20684;-50
2022/06/12 07:22:37;;;;;;;8.27;3.38;;;20.60;94.60;;;;;;5030697;28;20033;-49
2022/06/12 07:25:04;;;;;;;14.35;4.85;;;20.60;94.40;;;;;;5030614;28;20028;-49
2022/06/12 07:27:30;;;;;;;9.18;3.50;;;20.90;94.60;;;;;;5030491;28;20038;-51
2022/06/12 07:29:56;;;;;;;12.60;3.65;;;21.00;93.70;;;;;;5029958;28;20389;-49
2022/06/12 07:32:22;;;;;;;13.90;3.17;;;21.10;92.50;;;;;;5030328;28;20014;-48
2022/06/12 07:34:48;;;;;;;9.85;3.28;;;21.30;91.90;;;;;;5030466;28;20022;-50
2022/06/12 07:37:14;;;;;;;12.18;3.50;;;21.40;91.60;;;;;;5030576;28;20032;-48
2022/06/12 07:39:40;;;;;;;11.27;3.67;;;21.20;91.10;;;;;;5029769;28;20030;-47
2022/06/12 07:42:06;;;;;;;13.75;3.38;;;21.20;91.00;;;;;;5030033;28;20068;-49
2022/06/12 07:44:34;;;;;;;11.90;3.22;;;21.30;90.80;;;;;;5030389;28;20524;-46
2022/06/12 07:47:01;;;;;;;13.35;3.70;;;21.40;91.10;;;;;;5030138;28;20021;-48
2022/06/12 07:49:29;;;;;;;11.05;3.70;;;21.60;90.00;;;;;;5030101;28;20029;-47
2022/06/12 07:51:56;;;;;;;9.90;3.40;;;21.70;90.00;;;;;;5029973;28;20078;-51
2022/06/12 07:54:23;;;;;;;8.43;2.85;;;21.80;90.20;;;;;;5030092;28;20021;-46
2022/06/12 07:56:48;;;;;;;12.00;3.78;;;21.90;89.30;;;;;;5030282;28;20031;-48
2022/06/12 07:59:14;;;;;;;13.52;3.67;;;22.10;88.60;;;;;;5030337;28;20382;-47
2022/06/12 08:01:40;;;;;;;10.20;2.63;;;22.30;86.80;;;;;;5029666;28;20106;-48
2022/06/12 08:04:07;;;;;;;10.07;3.45;;;22.50;87.30;;;;;;5030347;28;20056;-47
2022/06/12 08:06:33;;;;;;;10.23;3.22;;;22.80;86.00;;;;;;5030267;28;20029;-48
2022/06/12 08:08:59;;;;;;;11.98;4.25;;;23.10;85.50;;;;;;5028684;28;20466;-49
2022/06/12 08:11:26;;;;;;;8.48;2.97;;;23.50;82.00;;;;;;5029610;28;20025;-48
2022/06/12 08:13:52;;;;;;;8.48;3.13;;;24.20;81.10;;;;;;5030187;28;20030;-48
2022/06/12 08:16:19;;;;;;;8.02;3.00;;;25.40;79.60;;;;;;5028719;28;20068;-49
2022/06/12 08:18:45;;;;;;;7.10;2.70;;;26.80;75.10;;;;;;5028313;28;20029;-48
2022/06/12 08:21:13;;;;;;;8.23;2.80;;;27.10;70.20;;;;;;5027896;28;20075;-49
2022/06/12 08:23:45;;;;;;;6.43;2.75;;;27.10;70.10;;;;;;5024064;28;20099;-47
2022/06/12 08:26:12;;;;;;;10.43;3.30;;;26.40;69.20;;;;;;5027346;28;20580;-51
2022/06/12 08:28:48;;;;;;;8.82;3.50;;;26.40;68.70;;;;;;5026205;28;20422;-50
2022/06/12 08:31:19;;;;;;;7.63;2.90;;;27.00;68.80;;;;;;5009112;28;20030;-47
2022/06/12 08:33:48;;;;;;;9.35;2.97;;;27.60;66.50;;;;;;5009827;28;20030;-49
2022/06/12 08:36:15;;;;;;;6.53;3.08;;;28.20;65.50;;;;;;5008775;28;20026;-50
2022/06/12 08:38:42;;;;;;;6.75;2.75;;;28.60;63.60;;;;;;5008588;28;20041;-50
2022/06/12 08:41:14;;;;;;;10.68;2.95;;;28.50;61.90;;;;;;5007836;28;20061;-47
2022/06/12 08:43:55;;;;;;;8.48;3.13;;;29.00;60.10;;;;;;5008424;28;20488;-50
2022/06/12 08:46:45;;;;;;;7.95;2.60;;;29.80;58.90;;;;;;5008517;28;20034;-49
2022/06/12 08:49:14;;;;;;;;;;;30.60;56.80;;;;;;5008800;28;20026;-50
2022/06/12 08:51:47;;;;;;;8.88;2.70;;;31.70;56.20;;;;;;5007644;28;19909;-48
2022/06/12 08:54:18;;;;;;;8.18;2.70;;;31.40;53.30;;;;;;5008194;28;20088;-47
2022/06/12 08:56:54;;;;;;;10.60;2.80;;;31.40;53.70;;;;;;5009538;28;20038;-49
2022/06/12 08:59:38;;;;;;;12.23;3.70;;;30.30;54.70;;;;;;5009979;28;20029;-50
2022/06/12 09:02:06;;;;;;;10.45;2.80;;;29.30;55.30;;;;;;5009997;28;20106;-50
2022/06/12 09:04:33;;;;;;;8.10;4.05;;;28.40;56.30;;;;;;5009715;28;20026;-47
2022/06/12 09:07:11;;;;;;;9.00;2.67;;;27.80;58.70;;;;;;5012111;28;20645;-49
2022/06/12 09:09:57;;;;;;;9.40;2.97;;;26.90;60.00;;;;;;5012654;28;20025;-48
2022/06/12 09:12:49;;;;;;;9.52;3.17;;;26.80;59.00;;;;;;5013152;28;20050;-48
2022/06/12 09:15:25;;;;;;;8.05;2.65;;;26.80;59.60;;;;;;5010270;28;20053;-46
2022/06/12 09:18:04;;;;;;;10.35;2.83;;;26.50;60.20;;;;;;5012215;28;20450;-49
2022/06/12 09:20:54;;;;;;;7.90;3.13;;;27.60;61.20;;;;;;5012987;28;20148;-49
2022/06/12 09:23:40;;;;;;;8.93;3.03;;;29.50;57.00;;;;;;5013455;28;20053;-50
2022/06/12 09:26:24;;;;;;;10.48;2.88;;;30.70;56.10;;;;;;5013495;28;20029;-47
2022/06/12 09:29:15;;;;;;;10.15;3.40;;;31.80;53.30;;;;;;5013206;28;20079;-51
2022/06/12 09:32:05;;;;;;;10.43;2.65;;;32.90;51.20;;;;;;5012737;28;20026;-50
2022/06/12 09:35:08;;;;;;;6.63;2.90;;;32.80;50.30;;;;;;5013325;28;20018;-50
2022/06/12 09:40:50;;;;;;;4.45;2.15;;;32.30;52.10;;;;;;5012422;28;20053;-50
2022/06/12 09:43:37;;;;;;;5.68;2.35;;;33.30;48.60;;;;;;5013137;28;20552;-51
2022/06/12 09:46:05;;;;;;;6.18;2.42;;;34.20;48.70;;;;;;5013041;28;20064;-51
2022/06/12 09:48:40;;;;;;;6.35;2.45;;;34.10;47.40;;;;;;5013060;28;20093;-50
2022/06/12 09:51:39;;;;;;;5.95;2.50;;;32.90;47.50;;;;;;5012149;28;20030;-51
2022/06/12 09:54:16;;;;;;;8.05;2.70;;;32.10;49.50;;;;;;5012590;28;20101;-49
2022/06/12 09:56:47;;;;;;;10.52;2.70;;;32.70;48.50;;;;;;5011482;28;20026;-49
2022/06/12 09:59:23;;;;;;;6.95;2.55;;;33.50;46.30;;;;;;5010912;28;20026;-51
2022/06/12 10:01:54;;;;;;;6.90;1.92;;;34.20;46.50;;;;;;5010561;28;20021;-50
2022/06/12 10:04:26;;;;;;;8.18;2.72;;;34.50;45.40;;;;;;5012409;28;20353;-51
2022/06/12 10:06:58;;;;;;;7.35;2.42;;;35.20;44.60;;;;;;5012577;28;20018;-50
2022/06/12 10:09:43;;;;;;;6.47;2.53;;;34.70;42.80;;;;;;5012302;28;20467;-50
2022/06/12 10:12:20;;;;;;;8.68;2.72;;;35.00;43.20;;;;;;5012397;28;20104;-50
2022/06/12 10:14:55;;;;;;;7.10;2.70;;;35.40;43.20;;;;;;5011978;28;20030;-54
2022/06/12 10:17:26;;;;;;;7.65;2.58;;;34.90;42.70;;;;;;5010531;28;20314;-51
2022/06/12 10:20:18;;;;;;;9.32;2.70;;;34.90;43.30;;;;;;5010869;28;20594;-51
2022/06/12 10:22:47;;;;;;;6.78;2.50;;;35.40;43.50;;;;;;5010960;28;20042;-50
2022/06/12 10:25:21;;;;;;;7.75;2.60;;;35.90;42.70;;;;;;5011751;28;20033;-51
2022/06/12 10:27:52;;;;;;;7.05;2.20;;;34.70;41.90;;;;;;5011879;28;20052;-51
2022/06/12 10:30:32;;;;;;;8.68;2.58;;;35.70;41.10;;;;;;5011163;28;20126;-50
2022/06/12 10:33:08;;;;;;;8.52;2.53;;;35.30;42.00;;;;;;5011730;28;20336;-51
2022/06/12 10:35:48;;;;;;;7.78;2.83;;;35.50;41.30;;;;;;5011641;28;20022;-51
2022/06/12 10:38:14;;;;;;;8.38;2.35;;;35.70;42.00;;;;;;5026295;28;20109;-53
2022/06/12 10:40:50;;;;;;;6.22;2.50;;;35.70;40.20;;;;;;5030774;28;20112;-52
2022/06/12 10:43:31;;;;;;;6.90;2.42;;;35.50;40.40;;;;;;5031084;28;20038;-51
2022/06/12 10:45:59;;;;;;;5.47;2.33;;;33.70;42.50;;;;;;5030917;28;20030;-50
2022/06/12 10:48:30;;;;;;;4.95;2.00;;;33.00;44.20;;;;;;5028191;28;20113;-51
2022/06/12 10:50:59;;;;;;;6.43;1.90;;;33.50;43.20;;;;;;5029325;28;20494;-52
2022/06/12 10:53:30;;;;;;;5.45;2.00;;;33.40;41.30;;;;;;5027772;28;20083;-51
2022/06/12 10:55:59;;;;;;;3.67;1.85;;;34.00;41.30;;;;;;5030755;28;20034;-52
2022/06/12 10:58:36;;;;;;;5.25;2.05;;;34.70;42.20;;;;;;5027771;28;20080;-52
2022/06/12 11:01:19;;;;;;;5.13;2.58;;;34.30;41.50;;;;;;5029955;28;20025;-52
2022/06/12 11:04:12;;;;;;;6.43;2.75;;;35.00;42.80;;;;;;5031271;28;20029;-51
2022/06/12 11:06:46;;;;;;;5.32;2.10;;;35.50;40.30;;;;;;5026345;28;20104;-52
2022/06/12 11:09:24;;;;;;;3.92;1.70;;;35.60;41.40;;;;;;5028163;28;20195;-52
2022/06/12 11:12:27;;;;;;;4.90;1.85;;;35.70;40.10;;;;;;5026573;28;20018;-51
2022/06/12 11:15:08;;;;;;;4.10;1.80;;;35.50;39.50;;;;;;5026710;28;20103;-53
2022/06/12 11:17:44;;;;;;;4.05;1.40;;;35.70;37.40;;;;;;5028479;28;20021;-52
2022/06/12 11:20:28;;;;;;;2.72;1.58;;;36.00;38.20;;;;;;5027800;28;20037;-52
2022/06/12 11:23:15;;;;;;;4.20;1.75;;;36.40;37.80;;;;;;5028381;28;20030;-52
2022/06/12 11:25:40;;;;;;;4.32;1.65;;;36.00;38.80;;;;;;5027298;28;20033;-52
2022/06/12 11:28:32;;;;;;;6.40;1.80;;;35.90;38.70;;;;;;5028540;28;20199;-52
2022/06/12 11:31:41;;;;;;;6.57;1.88;;;35.50;38.90;;;;;;5027775;28;20025;-52
2022/06/12 11:34:24;;;;;;;4.68;1.80;;;35.90;39.90;;;;;;5027207;28;20025;-52
2022/06/12 11:37:19;;;;;;;5.15;1.77;;;35.50;38.60;;;;;;5026248;28;20548;-53
2022/06/12 11:40:13;;;;;;;9.32;2.50;;;35.50;38.20;;;;;;5023506;28;20387;-52
2022/06/12 11:42:53;;;;;;;4.97;1.63;;;36.10;40.00;;;;;;5032179;28;20026;-51
2022/06/12 11:45:53;;;;;;;3.50;1.80;;;35.00;38.60;;;;;;5026382;28;20565;-51
2022/06/12 11:48:35;;;;;;;7.20;1.95;;;33.80;40.20;;;;;;5025172;28;20093;-50
2022/06/12 11:51:32;;;;;;;6.25;1.90;;;33.30;41.00;;;;;;5024490;28;20029;-51
2022/06/12 11:54:16;;;;;;;6.82;1.85;;;33.20;41.20;;;;;;5028129;28;20032;-52
2022/06/12 11:57:03;;;;;;;5.10;1.95;;;32.10;41.60;;;;;;5028034;28;20057;-51
2022/06/12 11:59:37;;;;;;;5.30;2.13;;;32.20;41.80;;;;;;5027725;28;20136;-52
2022/06/12 12:02:25;;;;;;;5.70;2.00;;;32.40;42.40;;;;;;5027611;28;20089;-50
2022/06/12 12:05:00;;;;;;;5.78;2.58;;;32.30;43.30;;;;;;5027927;28;20033;-51
2022/06/12 12:07:52;;;;;;;5.30;1.90;;;31.40;42.90;;;;;;5028096;28;20517;-51
2022/06/12 12:10:38;;;;;;;6.35;1.70;;;30.80;43.40;;;;;;5027409;28;20057;-50
2022/06/12 12:13:25;;;;;;;6.40;1.90;;;30.60;45.00;;;;;;5026093;28;20044;-48
2022/06/12 12:15:55;;;;;;;12.23;2.30;;;30.10;43.70;;;;;;5006609;28;20100;-51
2022/06/12 12:18:36;;;;;;;10.40;1.83;;;30.00;43.90;;;;;;5007679;28;20026;-48
2022/06/12 12:21:05;;;;;;;6.22;2.08;;;30.10;44.30;;;;;;5007113;28;20042;-49
2022/06/12 12:23:38;;;;;;;6.45;1.88;;;30.00;44.40;;;;;;5007361;28;20034;-51
2022/06/12 12:26:17;;;;;;;4.53;1.45;;;30.30;46.30;;;;;;5007433;28;20030;-48
2022/06/12 12:28:55;;;;;;;6.88;1.65;;;30.30;44.10;;;;;;5007958;28;20021;-52
2022/06/12 12:31:22;;;;;;;7.53;1.92;;;30.40;43.90;;;;;;5007441;28;20041;-51
2022/06/12 12:33:50;;;;;;;8.40;1.50;;;30.30;43.30;;;;;;5008441;28;20374;-48
2022/06/12 12:41:57;;;;;;;4.13;1.75;;;29.70;43.70;;;;;;5009945;28;20028;-51
2022/06/12 12:44:38;;;;;;;5.70;2.22;;;29.50;43.60;;;;;;5011554;28;20277;-51
2022/06/12 12:47:26;;;;;;;4.07;2.10;;;29.80;46.40;;;;;;5011659;28;20038;-50
2022/06/12 12:50:08;;;;;;;5.75;1.80;;;30.10;46.40;;;;;;5011290;28;20060;-50
2022/06/12 12:52:56;;;;;;;5.95;1.90;;;30.10;43.40;;;;;;5011995;28;20048;-48
2022/06/12 12:55:32;;;;;;;5.05;1.70;;;30.20;44.60;;;;;;5010386;28;20030;-48
2022/06/12 12:58:20;;;;;;;4.97;1.90;;;30.20;44.70;;;;;;5010281;28;20581;-48
2022/06/12 13:00:47;;;;;;;5.60;2.15;;;30.10;45.30;;;;;;5011138;28;20029;-49
2022/06/12 13:03:53;;;;;;;6.78;1.88;;;30.20;46.00;;;;;;5011164;28;20022;-49
2022/06/12 13:07:06;;;;;;;9.68;2.00;;;30.50;46.50;;;;;;5009131;28;20053;-49
2022/06/12 13:09:36;;;;;;;3.42;1.58;;;30.40;44.60;;;;;;5010902;28;20284;-48
2022/06/12 13:12:25;;;;;;;9.43;2.00;;;29.50;44.10;;;;;;5011180;28;20034;-47
2022/06/12 13:15:09;;;;;;;8.87;2.57;;;28.80;46.00;;;;;;5028233;28;20487;-48
2022/06/12 13:17:52;;;;;;;6.65;2.30;;;28.70;45.50;;;;;;5031024;28;20467;-48
2022/06/12 13:20:49;;;;;;;9.82;2.25;;;28.40;45.60;;;;;;5030530;28;20053;-46
2022/06/12 13:23:30;;;;;;;5.10;1.92;;;28.00;46.70;;;;;;5028556;28;20064;-48
2022/06/12 13:25:59;;;;;;;6.05;2.58;;;28.00;46.60;;;;;;5028338;28;20029;-46
2022/06/12 13:28:28;;;;;;;5.57;1.70;;;27.90;47.40;;;;;;5030372;28;20095;-45
2022/06/12 13:30:54;;;;;;;5.22;1.98;;;28.00;47.90;;;;;;5029671;28;20446;-45
2022/06/12 13:33:29;;;;;;;6.63;1.77;;;28.40;48.30;;;;;;5031124;28;20116;-45
2022/06/12 13:35:57;;;;;;;5.35;1.80;;;29.00;47.00;;;;;;5031419;28;20035;-45
2022/06/12 13:38:33;;;;;;;10.70;2.00;;;29.10;45.80;;;;;;5031147;28;20442;-48